createdAt,value
2023-04-20T00:00:21.759Z,12.69
2023-04-20T00:03:10.331Z,12.67
2023-04-20T00:05:39.256Z,12.63
2023-04-20T00:08:07.729Z,12.58
2023-04-20T00:10:36.228Z,12.53
2023-04-20T00:13:04.934Z,12.46
2023-04-20T00:15:33.766Z,12.42
2023-04-20T00:18:03.771Z,12.36
2023-04-20T00:20:33.479Z,12.32
2023-04-20T00:23:03.078Z,12.31
2023-04-20T00:25:32.162Z,12.31
2023-04-20T00:28:01.510Z,12.31
2023-04-20T00:30:29.962Z,12.31
2023-04-20T00:32:59.449Z,12.31
2023-04-20T00:35:29.083Z,12.33
2023-04-20T00:37:57.694Z,12.34
2023-04-20T00:40:26.630Z,12.38
2023-04-20T00:42:55.259Z,12.41
2023-04-20T00:45:23.852Z,12.40
2023-04-20T00:47:55.235Z,12.33
2023-04-20T00:50:25.716Z,12.24
2023-04-20T00:52:54.516Z,12.17
2023-04-20T00:55:23.186Z,12.10
2023-04-20T00:57:53.590Z,12.00
2023-04-20T01:00:22.102Z,11.92
2023-04-20T01:02:51.824Z,11.85
2023-04-20T01:05:22.008Z,11.82
2023-04-20T01:07:50.681Z,11.86
2023-04-20T01:10:20.685Z,11.90
2023-04-20T01:12:49.371Z,11.93
2023-04-20T01:15:18.304Z,11.96
2023-04-20T01:17:46.733Z,11.96
2023-04-20T01:20:16.456Z,11.90
2023-04-20T01:22:45.690Z,11.87
2023-04-20T01:25:14.668Z,11.84
2023-04-20T01:27:43.539Z,11.83
2023-04-20T01:30:12.865Z,11.86
2023-04-20T01:32:41.792Z,11.88
2023-04-20T01:35:10.928Z,11.88
2023-04-20T01:37:39.511Z,11.92
2023-04-20T01:40:10.406Z,11.93
2023-04-20T01:42:39.149Z,11.90
2023-04-20T01:45:08.476Z,11.91
2023-04-20T01:47:37.591Z,11.97
2023-04-20T01:50:07.894Z,12.05
2023-04-20T01:52:36.584Z,12.06
2023-04-20T01:55:07.025Z,12.09
2023-04-20T01:57:37.967Z,12.12
2023-04-20T02:00:09.917Z,12.19
2023-04-20T02:02:39.266Z,12.33
2023-04-20T02:05:09.091Z,12.34
2023-04-20T02:07:40.488Z,12.23
2023-04-20T02:10:10.045Z,12.13
2023-04-20T02:12:38.610Z,12.08
2023-04-20T02:15:09.381Z,12.07
2023-04-20T02:17:38.348Z,11.98
2023-04-20T02:20:09.834Z,11.97
2023-04-20T02:22:38.565Z,12.02
2023-04-20T02:25:09.928Z,12.08
2023-04-20T02:27:38.430Z,12.15
2023-04-20T02:30:09.934Z,12.24
2023-04-20T02:32:39.363Z,12.32
2023-04-20T02:35:14.450Z,12.42
2023-04-20T02:37:43.190Z,12.52
2023-04-20T02:40:12.482Z,12.56
2023-04-20T02:42:41.835Z,12.56
2023-04-20T02:45:11.497Z,12.58
2023-04-20T02:47:41.134Z,12.64
2023-04-20T02:50:10.652Z,12.74
2023-04-20T02:52:39.429Z,12.83
2023-04-20T02:55:08.919Z,12.91
2023-04-20T02:57:38.343Z,12.90
2023-04-20T03:00:09.288Z,12.88
2023-04-20T03:02:39.254Z,12.89
2023-04-20T03:05:09.125Z,12.99
2023-04-20T03:07:38.785Z,13.13
2023-04-20T03:10:09.446Z,13.20
2023-04-20T03:12:39.455Z,13.20
2023-04-20T03:15:09.781Z,13.15
2023-04-20T03:17:39.833Z,13.09
2023-04-20T03:20:11.325Z,12.96
2023-04-20T03:22:42.176Z,12.81
2023-04-20T03:25:11.392Z,12.71
2023-04-20T03:27:41.080Z,12.63
2023-04-20T03:30:11.761Z,12.62
2023-04-20T03:32:42.305Z,12.68
2023-04-20T03:35:11.468Z,12.69
2023-04-20T03:37:41.237Z,12.66
2023-04-20T03:40:10.986Z,12.68
2023-04-20T03:42:42.507Z,12.68
2023-04-20T03:45:13.071Z,12.67
2023-04-20T03:47:42.164Z,12.68
2023-04-20T03:50:11.937Z,12.68
2023-04-20T03:52:41.102Z,12.63
2023-04-20T03:55:11.269Z,12.59
2023-04-20T03:57:40.349Z,12.63
2023-04-20T04:00:12.187Z,12.72
2023-04-20T04:02:41.637Z,12.74
2023-04-20T04:05:11.227Z,12.70
2023-04-20T04:07:40.370Z,12.68
2023-04-20T04:10:11.481Z,12.67
2023-04-20T04:12:42.376Z,12.63
2023-04-20T04:15:12.285Z,12.60
2023-04-20T04:17:42.667Z,12.60
2023-04-20T04:20:14.456Z,12.66
2023-04-20T04:22:43.652Z,12.70
2023-04-20T04:25:13.217Z,12.72
2023-04-20T04:27:42.549Z,12.73
2023-04-20T04:30:21.567Z,12.76
2023-04-20T04:33:00.587Z,12.75
2023-04-20T04:35:29.929Z,12.82
2023-04-20T04:37:58.800Z,13.09
2023-04-20T04:40:27.273Z,13.38
2023-04-20T04:42:55.735Z,13.67
2023-04-20T04:45:25.027Z,13.86
2023-04-20T04:47:54.032Z,13.90
2023-04-20T04:50:22.907Z,13.92
2023-04-20T04:52:51.602Z,13.93
2023-04-20T04:55:20.316Z,13.96
2023-04-20T04:57:48.676Z,13.96
2023-04-20T05:00:17.997Z,13.96
2023-04-20T05:02:46.572Z,13.96
2023-04-20T05:05:16.220Z,13.99
2023-04-20T05:07:44.704Z,14.01
2023-04-20T05:10:15.097Z,13.99
2023-04-20T05:12:44.739Z,13.85
2023-04-20T05:15:16.248Z,13.76
2023-04-20T05:17:44.975Z,13.77
2023-04-20T05:20:14.249Z,13.82
2023-04-20T05:22:43.778Z,13.94
2023-04-20T05:25:13.896Z,14.03
2023-04-20T05:27:43.595Z,14.11
2023-04-20T05:30:21.489Z,14.17
2023-04-20T05:32:52.319Z,14.24
2023-04-20T05:35:21.956Z,14.32
2023-04-20T05:37:50.150Z,14.41
2023-04-20T05:40:18.225Z,14.47
2023-04-20T05:42:48.192Z,14.43
2023-04-20T05:45:17.197Z,14.32
2023-04-20T05:47:53.128Z,14.18
2023-04-20T05:50:23.075Z,14.08
2023-04-20T05:52:51.433Z,14.00
2023-04-20T05:55:22.203Z,14.06
2023-04-20T05:57:52.132Z,14.14
2023-04-20T06:00:23.130Z,14.14
2023-04-20T06:02:54.324Z,14.06
2023-04-20T06:05:23.269Z,13.96
2023-04-20T06:07:51.653Z,13.93
2023-04-20T06:10:20.062Z,13.92
2023-04-20T06:12:48.611Z,13.97
2023-04-20T06:15:17.646Z,13.96
2023-04-20T06:17:46.712Z,13.89
2023-04-20T06:20:17.486Z,13.88
2023-04-20T06:22:46.700Z,13.89
2023-04-20T06:25:16.196Z,13.86
2023-04-20T06:27:44.406Z,13.80
2023-04-20T06:30:16.370Z,13.82
2023-04-20T06:32:44.918Z,13.85
2023-04-20T06:35:14.322Z,13.83
2023-04-20T06:37:42.483Z,13.80
2023-04-20T06:40:11.025Z,13.82
2023-04-20T06:42:41.194Z,13.86
2023-04-20T06:45:10.532Z,13.91
2023-04-20T06:47:38.839Z,13.98
2023-04-20T06:50:09.016Z,13.99
2023-04-20T06:52:37.550Z,14.01
2023-04-20T06:55:06.600Z,14.03
2023-04-20T06:57:36.715Z,14.03
2023-04-20T07:00:08.035Z,14.00
2023-04-20T07:02:43.392Z,14.01
2023-04-20T07:05:11.789Z,14.00
2023-04-20T07:07:40.218Z,13.96
2023-04-20T07:10:09.512Z,13.94
2023-04-20T07:12:38.555Z,13.94
2023-04-20T07:15:09.034Z,13.97
2023-04-20T07:17:37.448Z,14.03
2023-04-20T07:20:08.159Z,14.12
2023-04-20T07:22:36.941Z,14.26
2023-04-20T07:25:06.892Z,14.35
2023-04-20T07:27:36.094Z,14.41
2023-04-20T07:30:06.075Z,14.47
2023-04-20T07:32:34.769Z,14.51
2023-04-20T07:35:03.883Z,14.54
2023-04-20T07:37:33.661Z,14.53
2023-04-20T07:40:01.994Z,14.60
2023-04-20T07:42:32.007Z,14.68
2023-04-20T07:45:00.279Z,14.70
2023-04-20T07:47:28.456Z,14.73
2023-04-20T07:49:57.338Z,14.75
2023-04-20T07:52:25.956Z,14.80
2023-04-20T07:54:57.361Z,14.88
2023-04-20T07:57:26.000Z,14.89
2023-04-20T07:59:54.496Z,14.99
2023-04-20T08:02:22.969Z,15.11
2023-04-20T08:04:52.239Z,15.24
2023-04-20T08:07:23.461Z,15.38
2023-04-20T08:09:52.553Z,15.43
2023-04-20T08:12:21.568Z,15.41
2023-04-20T08:14:51.883Z,15.40
2023-04-20T08:17:21.626Z,15.39
2023-04-20T08:19:50.855Z,15.43
2023-04-20T08:22:19.411Z,15.45
2023-04-20T08:24:48.716Z,15.55
2023-04-20T08:27:16.848Z,15.62
2023-04-20T08:29:45.946Z,15.60
2023-04-20T08:32:15.028Z,15.53
2023-04-20T08:34:43.312Z,15.53
2023-04-20T08:37:11.852Z,15.57
2023-04-20T08:39:40.225Z,15.60
2023-04-20T08:42:08.441Z,15.51
2023-04-20T08:44:36.982Z,15.49
2023-04-20T08:47:05.612Z,15.48
2023-04-20T08:49:34.636Z,15.49
2023-04-20T08:52:02.961Z,15.57
2023-04-20T08:54:32.521Z,15.65
2023-04-20T08:57:01.674Z,15.71
2023-04-20T08:59:30.601Z,15.77
2023-04-20T09:02:09.564Z,15.80
2023-04-20T09:04:39.175Z,15.90
2023-04-20T09:07:16.840Z,15.98
2023-04-20T09:09:55.724Z,16.04
2023-04-20T09:12:25.221Z,16.07
2023-04-20T09:14:55.301Z,16.12
2023-04-20T09:17:34.036Z,16.08
2023-04-20T09:20:04.636Z,16.15
2023-04-20T09:22:33.573Z,16.25
2023-04-20T09:25:12.091Z,16.34
2023-04-20T09:27:40.571Z,16.39
2023-04-20T09:30:09.916Z,16.46
2023-04-20T09:32:38.665Z,16.52
2023-04-20T09:35:07.989Z,16.49
2023-04-20T09:37:36.299Z,16.55
2023-04-20T09:40:06.212Z,16.64
2023-04-20T09:42:38.116Z,16.72
2023-04-20T09:45:07.721Z,16.73
2023-04-20T09:47:37.246Z,16.79
2023-04-20T09:50:19.431Z,16.85
2023-04-20T09:52:55.059Z,16.82
2023-04-20T09:55:25.685Z,16.77
2023-04-20T09:57:56.228Z,16.76
2023-04-20T10:00:27.084Z,16.77
2023-04-20T10:02:59.211Z,16.77
2023-04-20T10:05:35.092Z,16.78
2023-04-20T10:08:04.305Z,16.75
2023-04-20T10:10:42.823Z,16.69
2023-04-20T10:13:11.928Z,16.60
2023-04-20T10:15:41.269Z,16.54
2023-04-20T10:18:17.834Z,16.53
2023-04-20T10:20:46.590Z,16.54
2023-04-20T10:23:15.665Z,16.50
2023-04-20T10:25:55.046Z,16.41
2023-04-20T10:28:24.453Z,16.36
2023-04-20T10:30:53.815Z,16.36
2023-04-20T10:48:21.308Z,16.79
2023-04-20T10:50:50.541Z,16.81
2023-04-20T10:53:20.726Z,16.74
2023-04-20T10:55:59.339Z,16.65
2023-04-20T10:58:29.007Z,16.59
2023-04-20T11:01:01.138Z,16.50
2023-04-20T11:03:33.717Z,16.42
2023-04-20T11:06:03.487Z,16.37
2023-04-20T11:08:40.550Z,16.32
2023-04-20T11:11:20.426Z,16.22
2023-04-20T11:13:49.626Z,16.19
2023-04-20T11:16:19.901Z,16.19
2023-04-20T11:18:53.874Z,16.17
2023-04-20T11:21:23.645Z,16.17
2023-04-20T11:23:52.996Z,16.25
2023-04-20T11:26:22.295Z,16.30
2023-04-20T11:28:56.480Z,16.38
2023-04-20T11:31:27.626Z,16.50
2023-04-20T11:33:57.471Z,16.58
2023-04-20T11:36:30.426Z,16.69
2023-04-20T11:39:09.232Z,16.73
2023-04-20T11:41:38.673Z,16.71
2023-04-20T11:44:07.980Z,16.76
2023-04-20T11:46:37.291Z,16.79
2023-04-20T11:49:06.767Z,16.77
2023-04-20T11:51:36.212Z,16.75
2023-04-20T11:54:05.537Z,16.82
2023-04-20T11:56:34.843Z,16.97
2023-04-20T11:59:04.020Z,17.11
2023-04-20T12:01:33.324Z,17.28
2023-04-20T12:04:02.871Z,17.43
2023-04-20T12:06:32.956Z,17.59
2023-04-20T12:09:02.233Z,17.69
2023-04-20T12:11:31.624Z,17.73
2023-04-20T12:14:00.887Z,17.75
2023-04-20T12:16:30.048Z,17.68
2023-04-20T12:18:59.735Z,17.65
2023-04-20T12:21:29.100Z,17.55
2023-04-20T12:24:01.088Z,17.49
2023-04-20T12:26:37.977Z,17.44
2023-04-20T12:29:10.850Z,17.39
2023-04-20T12:31:40.553Z,17.43
2023-04-20T12:34:10.120Z,17.55
2023-04-20T12:36:39.344Z,17.67
2023-04-20T12:39:11.203Z,17.77
2023-04-20T12:41:42.124Z,17.92
2023-04-20T12:44:12.661Z,18.08
2023-04-20T12:46:41.933Z,18.19
2023-04-20T12:49:12.530Z,18.29
2023-04-20T12:51:41.865Z,18.44
2023-04-20T12:54:11.423Z,18.60
2023-04-20T12:56:40.718Z,18.75
2023-04-20T12:59:10.711Z,18.89
2023-04-20T13:01:39.863Z,19.06
2023-04-20T13:04:09.528Z,19.23
2023-04-20T13:06:38.817Z,19.41
2023-04-20T13:09:08.697Z,19.71
2023-04-20T13:11:37.843Z,19.95
2023-04-20T13:14:07.286Z,20.12
2023-04-20T13:16:37.120Z,20.20
2023-04-20T13:19:07.626Z,20.24
2023-04-20T13:21:37.073Z,20.39
2023-04-20T13:24:07.196Z,20.54
2023-04-20T13:26:36.604Z,20.61
2023-04-20T13:29:05.906Z,20.58
2023-04-20T13:31:36.521Z,20.51
2023-04-20T13:34:06.398Z,20.41
2023-04-20T13:37:04.999Z,20.30
2023-04-20T13:39:34.649Z,20.22
2023-04-20T13:42:18.109Z,20.22
2023-04-20T13:44:47.843Z,20.24
2023-04-20T13:47:17.491Z,20.21
2023-04-20T13:49:46.605Z,20.17
2023-04-20T13:52:15.885Z,20.15
2023-04-20T13:54:45.785Z,20.10
2023-04-20T13:57:15.164Z,20.06
2023-04-20T13:59:47.362Z,20.01
2023-04-20T14:02:18.649Z,19.85
2023-04-20T14:04:48.669Z,19.65
2023-04-20T14:07:17.909Z,19.44
2023-04-20T14:09:47.548Z,19.28
2023-04-20T14:12:17.034Z,19.05
2023-04-20T14:14:46.256Z,18.94
2023-04-20T14:17:16.244Z,19.04
2023-04-20T14:19:45.764Z,19.17
2023-04-20T14:22:15.081Z,19.05
2023-04-20T14:24:46.302Z,18.89
2023-04-20T14:27:15.707Z,18.85
2023-04-20T14:29:44.923Z,18.84
2023-04-20T14:32:14.814Z,18.78
2023-04-20T14:34:44.494Z,18.79
2023-04-20T14:37:14.024Z,18.89
2023-04-20T14:39:43.370Z,19.03
2023-04-20T14:42:14.068Z,19.34
2023-04-20T14:44:43.184Z,19.49
2023-04-20T14:47:12.358Z,19.49
2023-04-20T14:49:42.421Z,19.58
2023-04-20T14:52:11.876Z,19.66
2023-04-20T14:54:41.531Z,19.65
2023-04-20T14:57:10.820Z,19.61
2023-04-20T14:59:40.872Z,19.55
2023-04-20T15:02:10.357Z,19.46
2023-04-20T15:04:40.203Z,19.39
2023-04-20T15:07:09.796Z,19.31
2023-04-20T15:09:39.084Z,19.19
2023-04-20T15:12:10.163Z,19.06
2023-04-20T15:15:47.619Z,18.98
2023-04-20T15:20:50.281Z,18.88
2023-04-20T15:23:16.759Z,18.78
2023-04-20T15:25:48.292Z,18.68
2023-04-20T15:28:17.814Z,18.59
2023-04-20T15:30:47.367Z,18.48
2023-04-20T15:33:17.163Z,18.31
2023-04-20T15:35:48.723Z,18.15
2023-04-20T15:38:17.798Z,18.03
2023-04-20T15:40:48.706Z,17.96
2023-04-20T15:43:19.146Z,17.88
2023-04-20T15:45:49.944Z,17.82
2023-04-20T15:48:19.570Z,17.76
2023-04-20T15:50:54.162Z,17.70
2023-04-20T15:53:26.387Z,17.67
2023-04-20T16:00:05.085Z,17.56
2023-04-20T16:02:40.477Z,17.49
2023-04-20T16:05:10.736Z,17.43
2023-04-20T16:07:42.500Z,17.38
2023-04-20T16:10:15.248Z,17.31
2023-04-20T16:12:45.191Z,17.27
2023-04-20T16:15:15.905Z,17.22
2023-04-20T16:17:45.259Z,17.17
2023-04-20T16:20:14.894Z,17.07
2023-04-20T16:22:44.347Z,16.99
2023-04-20T16:25:22.093Z,16.90
2023-04-20T16:27:51.982Z,16.83
2023-04-20T16:30:23.621Z,16.77
2023-04-20T16:32:53.124Z,16.71
2023-04-20T16:35:22.811Z,16.66
2023-04-20T16:37:52.363Z,16.62
2023-04-20T16:40:22.116Z,16.58
2023-04-20T16:42:51.735Z,16.52
2023-04-20T16:45:21.435Z,16.49
2023-04-20T16:47:51.413Z,16.45
2023-04-20T16:50:21.846Z,16.39
2023-04-20T16:52:51.189Z,16.36
2023-04-20T16:55:20.927Z,16.33
2023-04-20T16:57:50.761Z,16.29
2023-04-20T17:00:22.371Z,16.25
2023-04-20T17:02:52.922Z,16.21
2023-04-20T17:05:31.520Z,16.16
2023-04-20T17:08:02.152Z,16.10
2023-04-20T17:10:38.758Z,16.02
2023-04-20T17:13:08.522Z,15.96
2023-04-20T17:15:39.668Z,15.91
2023-04-20T17:18:08.842Z,15.87
2023-04-20T17:20:39.668Z,15.84
2023-04-20T17:23:10.743Z,15.81
2023-04-20T17:25:41.684Z,15.77
2023-04-20T17:28:10.978Z,15.67
2023-04-20T17:30:40.520Z,15.59
2023-04-20T17:33:11.697Z,15.55
2023-04-20T17:35:41.271Z,15.51
2023-04-20T17:38:11.046Z,15.46
2023-04-20T17:40:40.627Z,15.43
2023-04-20T17:43:10.008Z,15.39
2023-04-20T17:45:39.468Z,15.33
2023-04-20T17:48:09.017Z,15.28
2023-04-20T17:50:38.276Z,15.19
2023-04-20T17:53:07.965Z,15.13
2023-04-20T17:55:37.589Z,15.10
2023-04-20T17:58:06.981Z,15.06
2023-04-20T18:00:37.928Z,15.01
2023-04-20T18:03:07.349Z,14.96
2023-04-20T18:05:37.638Z,14.96
2023-04-20T18:08:12.560Z,14.96
2023-04-20T18:10:41.741Z,14.93
2023-04-20T18:13:15.837Z,14.91
2023-04-20T18:15:46.359Z,14.91
2023-04-20T18:18:21.205Z,15.01
2023-04-20T18:20:50.673Z,15.21
2023-04-20T18:23:23.960Z,15.21
2023-04-20T18:25:54.764Z,15.17
2023-04-20T18:28:24.163Z,15.20
2023-04-20T18:30:55.729Z,15.21
2023-04-20T18:33:27.784Z,15.25
2023-04-20T18:35:57.570Z,15.20
2023-04-20T18:38:27.528Z,15.24
2023-04-20T18:41:00.388Z,15.22
2023-04-20T18:43:33.017Z,15.21
2023-04-20T18:46:05.652Z,15.18
2023-04-20T18:48:36.682Z,15.21
2023-04-20T18:51:10.092Z,15.26
2023-04-20T18:53:45.575Z,15.26
2023-04-20T18:56:15.037Z,15.25
2023-04-20T18:58:44.767Z,15.24
2023-04-20T19:01:17.368Z,15.33
2023-04-20T19:03:48.373Z,15.38
2023-04-20T19:06:19.716Z,15.39
2023-04-20T19:08:50.931Z,15.43
2023-04-20T19:11:20.104Z,15.41
2023-04-20T19:13:49.871Z,15.37
2023-04-20T19:16:20.390Z,15.22
2023-04-20T19:18:50.608Z,15.06
2023-04-20T19:21:22.034Z,14.99
2023-04-20T19:23:51.941Z,14.88
2023-04-20T19:26:21.549Z,14.78
2023-04-20T19:28:50.852Z,14.70
2023-04-20T19:31:21.100Z,14.71
2023-04-20T19:33:55.255Z,14.69
2023-04-20T19:36:27.309Z,14.68
2023-04-20T19:38:57.314Z,14.64
2023-04-20T19:41:27.631Z,14.58
2023-04-20T19:43:58.752Z,14.51
2023-04-20T19:46:28.022Z,14.44
2023-04-20T19:48:57.359Z,14.41
2023-04-20T19:51:26.891Z,14.37
2023-04-20T19:53:56.116Z,14.36
2023-04-20T19:56:26.505Z,14.38
2023-04-20T19:58:55.707Z,14.38
2023-04-20T20:01:25.205Z,14.31
2023-04-20T20:03:55.357Z,14.31
2023-04-20T20:06:26.674Z,14.30
2023-04-20T20:08:56.293Z,14.28
2023-04-20T20:11:26.541Z,14.25
2023-04-20T20:13:55.999Z,14.23
2023-04-20T20:16:27.629Z,14.21
2023-04-20T20:18:59.015Z,14.19
2023-04-20T20:21:29.282Z,14.15
2023-04-20T20:23:58.767Z,14.11
2023-04-20T20:26:28.525Z,14.08
2023-04-20T20:28:57.855Z,14.02
2023-04-20T20:31:28.356Z,13.93
2023-04-20T20:33:58.580Z,13.88
2023-04-20T20:36:31.386Z,13.85
2023-04-20T20:39:01.130Z,13.84
2023-04-20T20:41:30.800Z,13.85
2023-04-20T20:44:01.894Z,13.87
2023-04-20T20:46:33.944Z,13.85
2023-04-20T20:49:10.392Z,13.82
2023-04-20T20:51:42.590Z,13.77
2023-04-20T20:54:28.140Z,13.73
2023-04-20T20:56:58.346Z,13.69
2023-04-20T20:59:28.036Z,13.64
2023-04-20T21:01:57.326Z,13.55
2023-04-20T21:04:29.576Z,13.46
2023-04-20T21:07:01.178Z,13.39
2023-04-20T21:09:33.002Z,13.35
2023-04-20T21:12:02.465Z,13.33
2023-04-20T21:14:31.852Z,13.29
2023-04-20T21:17:01.073Z,13.24
2023-04-20T21:19:30.436Z,13.20
2023-04-20T21:21:59.940Z,13.17
2023-04-20T21:24:29.342Z,13.12
2023-04-20T21:26:59.350Z,13.08
2023-04-20T21:29:28.713Z,13.01
2023-04-20T21:31:58.174Z,12.97
2023-04-20T21:34:27.770Z,12.96
2023-04-20T21:37:03.915Z,12.99
2023-04-20T21:39:34.080Z,13.02
2023-04-20T21:42:04.190Z,13.06
2023-04-20T21:44:33.538Z,13.04
2023-04-20T21:47:03.105Z,12.99
2023-04-20T21:49:32.821Z,12.95
2023-04-20T21:52:02.022Z,12.92
2023-04-20T21:54:33.198Z,12.89
2023-04-20T21:57:04.245Z,12.85
2023-04-20T21:59:33.708Z,12.84
2023-04-20T22:02:03.365Z,12.87
2023-04-20T22:04:33.200Z,12.86
2023-04-20T22:07:03.413Z,12.83
2023-04-20T22:09:32.778Z,12.80
2023-04-20T22:12:02.760Z,12.78
2023-04-20T22:14:32.268Z,12.77
2023-04-20T22:17:02.113Z,12.76
2023-04-20T22:19:31.566Z,12.75
2023-04-20T22:22:01.248Z,12.77
2023-04-20T22:24:30.286Z,12.80
2023-04-20T22:26:59.656Z,12.82
2023-04-20T22:29:28.963Z,12.78
2023-04-20T22:31:58.107Z,12.74
2023-04-20T22:34:27.735Z,12.66
2023-04-20T22:36:57.058Z,12.61
2023-04-20T22:39:26.321Z,12.55
2023-04-20T22:41:55.586Z,12.51
2023-04-20T22:44:24.889Z,12.47
2023-04-20T22:46:54.250Z,12.43
2023-04-20T22:49:23.741Z,12.42
2023-04-20T22:51:56.080Z,12.40
2023-04-20T22:54:25.750Z,12.37
2023-04-20T22:56:55.157Z,12.35
2023-04-20T22:59:24.654Z,12.32
2023-04-20T23:01:53.895Z,12.30
2023-04-20T23:04:23.092Z,12.25
2023-04-20T23:06:52.463Z,12.21
2023-04-20T23:09:21.969Z,12.17
2023-04-20T23:11:53.195Z,12.13
2023-04-20T23:14:23.309Z,12.14
2023-04-20T23:16:52.703Z,12.19
2023-04-20T23:19:21.953Z,12.22
2023-04-20T23:21:51.292Z,12.19
2023-04-20T23:24:20.495Z,12.15
2023-04-20T23:26:50.344Z,12.13
2023-04-20T23:29:20.695Z,12.11
2023-04-20T23:31:50.721Z,12.12
2023-04-20T23:34:20.917Z,12.15
2023-04-20T23:36:53.245Z,12.18
2023-04-20T23:39:22.997Z,12.21
2023-04-20T23:41:52.204Z,12.26
2023-04-20T23:44:21.502Z,12.30
2023-04-20T23:46:50.966Z,12.30
2023-04-20T23:49:21.318Z,12.25
2023-04-20T23:51:51.351Z,12.20
2023-04-20T23:54:21.411Z,12.15
2023-04-20T23:56:51.864Z,12.14
2023-04-20T23:59:21.593Z,12.15
